TNCE/EUX METAR and TAF weather

Enter ICAO airport designator
Station Type Date Time Source
TNCE METAR 2022/08/16 19:55 UTC NOAA

TNCE 161955Z AUTO 07010KT 040V120 //// // ///////// 31/25 Q1014 RE//


Station Type Date Time Source
TNCE Decoded METAR 2022/08/16 19:55 UTC NOAA

Roosevelt Airport Saint Eustatius, Netherlands Antilles (TNCE) 17-29N 062-59W 39M
Aug 16, 2022 - 03:55 PM EDT / 2022.08.16 1955 UTC
Wind: from the ENE (070 degrees) at 12 MPH (10 KT) (direction variable):0
Temperature: 87 F (31 C)
Heat index: 97.5 F (36.4 C):1
Dew Point: 77 F (25 C)
Relative Humidity: 70%
Pressure (altimeter): 29.94 in. Hg (1014 hPa)
ob: TNCE 161955Z AUTO 07010KT 040V120 //// // ///////// 31/25 Q1014 RE//
cycle: 20

Station Type Date Time Source
TNCE TAF UTC NOAA

Error!

Example: see airport list